sensor_id;sensor_type;location;lat;lon;timestamp;temperature;humidity
23520;DHT22;11936;50.820;4.336;2023-06-14T00:01:44;25.10;57.40
23520;DHT22;11936;50.820;4.336;2023-06-14T00:04:14;25.10;57.20
23520;DHT22;11936;50.820;4.336;2023-06-14T00:06:42;25.10;57.40
23520;DHT22;11936;50.820;4.336;2023-06-14T00:09:10;24.90;57.50
23520;DHT22;11936;50.820;4.336;2023-06-14T00:11:38;25.00;57.60
23520;DHT22;11936;50.820;4.336;2023-06-14T00:14:04;24.80;57.70
23520;DHT22;11936;50.820;4.336;2023-06-14T00:16:30;24.80;57.60
23520;DHT22;11936;50.820;4.336;2023-06-14T00:18:55;24.90;58.00
23520;DHT22;11936;50.820;4.336;2023-06-14T00:21:21;24.90;58.00
23520;DHT22;11936;50.820;4.336;2023-06-14T00:23:47;24.80;58.00
23520;DHT22;11936;50.820;4.336;2023-06-14T00:26:12;24.70;57.80
23520;DHT22;11936;50.820;4.336;2023-06-14T00:28:38;24.70;57.70
23520;DHT22;11936;50.820;4.336;2023-06-14T00:31:03;24.70;57.60
23520;DHT22;11936;50.820;4.336;2023-06-14T00:33:29;24.70;57.90
23520;DHT22;11936;50.820;4.336;2023-06-14T00:35:55;24.60;58.10
23520;DHT22;11936;50.820;4.336;2023-06-14T00:38:21;24.60;57.80
23520;DHT22;11936;50.820;4.336;2023-06-14T00:40:46;24.60;57.80
23520;DHT22;11936;50.820;4.336;2023-06-14T00:43:12;24.60;58.00
23520;DHT22;11936;50.820;4.336;2023-06-14T00:45:38;24.60;58.20
23520;DHT22;11936;50.820;4.336;2023-06-14T00:48:04;24.60;58.30
23520;DHT22;11936;50.820;4.336;2023-06-14T00:50:31;24.60;58.50
23520;DHT22;11936;50.820;4.336;2023-06-14T00:52:59;24.60;58.10
23520;DHT22;11936;50.820;4.336;2023-06-14T00:55:25;24.60;57.90
23520;DHT22;11936;50.820;4.336;2023-06-14T00:57:51;24.50;57.90
23520;DHT22;11936;50.820;4.336;2023-06-14T01:00:17;24.40;59.10
23520;DHT22;11936;50.820;4.336;2023-06-14T01:02:42;24.40;59.00
23520;DHT22;11936;50.820;4.336;2023-06-14T01:05:09;24.50;58.70
23520;DHT22;11936;50.820;4.336;2023-06-14T01:07:54;24.40;58.70
23520;DHT22;11936;50.820;4.336;2023-06-14T01:13:39;24.30;59.20
23520;DHT22;11936;50.820;4.336;2023-06-14T01:16:08;24.20;59.10
23520;DHT22;11936;50.820;4.336;2023-06-14T01:18:34;24.10;59.10
23520;DHT22;11936;50.820;4.336;2023-06-14T01:21:00;24.10;59.30
23520;DHT22;11936;50.820;4.336;2023-06-14T01:23:31;24.10;59.30
23520;DHT22;11936;50.820;4.336;2023-06-14T01:25:59;24.00;58.90
23520;DHT22;11936;50.820;4.336;2023-06-14T01:28:26;23.90;59.00
23520;DHT22;11936;50.820;4.336;2023-06-14T01:30:58;24.00;59.20
23520;DHT22;11936;50.820;4.336;2023-06-14T01:33:26;24.00;59.00
23520;DHT22;11936;50.820;4.336;2023-06-14T01:35:53;23.90;59.00
23520;DHT22;11936;50.820;4.336;2023-06-14T01:38:23;24.00;59.40
23520;DHT22;11936;50.820;4.336;2023-06-14T01:40:50;24.00;58.90
23520;DHT22;11936;50.820;4.336;2023-06-14T01:43:18;23.90;59.10
23520;DHT22;11936;50.820;4.336;2023-06-14T01:45:45;23.80;59.10
23520;DHT22;11936;50.820;4.336;2023-06-14T01:48:11;23.70;59.10
23520;DHT22;11936;50.820;4.336;2023-06-14T01:50:37;23.70;59.40
23520;DHT22;11936;50.820;4.336;2023-06-14T01:53:06;23.70;59.60
23520;DHT22;11936;50.820;4.336;2023-06-14T01:55:32;23.80;59.70
23520;DHT22;11936;50.820;4.336;2023-06-14T01:58:03;23.60;59.90
23520;DHT22;11936;50.820;4.336;2023-06-14T02:00:28;23.60;60.50
23520;DHT22;11936;50.820;4.336;2023-06-14T02:02:54;23.60;60.10
23520;DHT22;11936;50.820;4.336;2023-06-14T02:05:19;23.60;60.00
23520;DHT22;11936;50.820;4.336;2023-06-14T02:07:46;23.60;60.00
23520;DHT22;11936;50.820;4.336;2023-06-14T02:10:11;23.70;60.00
23520;DHT22;11936;50.820;4.336;2023-06-14T02:12:37;23.60;59.70
23520;DHT22;11936;50.820;4.336;2023-06-14T02:15:03;23.40;60.20
23520;DHT22;11936;50.820;4.336;2023-06-14T02:17:29;23.40;60.40
23520;DHT22;11936;50.820;4.336;2023-06-14T02:19:55;23.40;60.50
23520;DHT22;11936;50.820;4.336;2023-06-14T02:22:22;23.40;60.70
23520;DHT22;11936;50.820;4.336;2023-06-14T02:24:48;23.20;61.10
23520;DHT22;11936;50.820;4.336;2023-06-14T02:27:14;23.20;61.20
23520;DHT22;11936;50.820;4.336;2023-06-14T02:29:39;23.20;61.40
23520;DHT22;11936;50.820;4.336;2023-06-14T02:32:05;23.30;61.20
23520;DHT22;11936;50.820;4.336;2023-06-14T02:34:33;23.40;61.10
23520;DHT22;11936;50.820;4.336;2023-06-14T02:36:59;23.20;61.40
23520;DHT22;11936;50.820;4.336;2023-06-14T02:39:25;23.20;61.10
23520;DHT22;11936;50.820;4.336;2023-06-14T02:41:50;23.20;61.10
23520;DHT22;11936;50.820;4.336;2023-06-14T02:44:18;23.20;61.00
23520;DHT22;11936;50.820;4.336;2023-06-14T02:46:43;23.20;61.10
23520;DHT22;11936;50.820;4.336;2023-06-14T02:49:10;23.10;61.20
23520;DHT22;11936;50.820;4.336;2023-06-14T02:51:36;23.00;61.60
23520;DHT22;11936;50.820;4.336;2023-06-14T02:54:02;22.90;61.60
23520;DHT22;11936;50.820;4.336;2023-06-14T02:56:28;22.90;61.60
23520;DHT22;11936;50.820;4.336;2023-06-14T02:58:54;22.90;62.50
23520;DHT22;11936;50.820;4.336;2023-06-14T03:01:20;23.00;61.70
23520;DHT22;11936;50.820;4.336;2023-06-14T03:03:47;22.90;61.70
23520;DHT22;11936;50.820;4.336;2023-06-14T03:06:12;22.90;61.90
23520;DHT22;11936;50.820;4.336;2023-06-14T03:08:40;22.90;62.10
23520;DHT22;11936;50.820;4.336;2023-06-14T03:11:07;22.90;62.20
23520;DHT22;11936;50.820;4.336;2023-06-14T03:13:36;22.90;62.20
23520;DHT22;11936;50.820;4.336;2023-06-14T03:16:02;22.90;62.00
23520;DHT22;11936;50.820;4.336;2023-06-14T03:18:29;22.80;62.20
23520;DHT22;11936;50.820;4.336;2023-06-14T03:20:56;22.80;62.50
23520;DHT22;11936;50.820;4.336;2023-06-14T03:23:24;22.80;62.20
23520;DHT22;11936;50.820;4.336;2023-06-14T03:25:50;22.90;62.20
23520;DHT22;11936;50.820;4.336;2023-06-14T03:28:16;22.80;62.40
23520;DHT22;11936;50.820;4.336;2023-06-14T03:30:42;22.90;62.50
23520;DHT22;11936;50.820;4.336;2023-06-14T03:33:08;22.80;62.30
23520;DHT22;11936;50.820;4.336;2023-06-14T03:35:34;22.80;62.30
23520;DHT22;11936;50.820;4.336;2023-06-14T03:37:59;22.80;62.40
23520;DHT22;11936;50.820;4.336;2023-06-14T03:40:25;22.70;62.50
23520;DHT22;11936;50.820;4.336;2023-06-14T03:42:53;22.60;62.40
23520;DHT22;11936;50.820;4.336;2023-06-14T03:45:19;22.50;62.80
23520;DHT22;11936;50.820;4.336;2023-06-14T03:47:45;22.30;62.90
23520;DHT22;11936;50.820;4.336;2023-06-14T03:50:11;22.30;63.50
23520;DHT22;11936;50.820;4.336;2023-06-14T03:52:37;22.30;63.90
23520;DHT22;11936;50.820;4.336;2023-06-14T03:55:04;22.40;63.50
23520;DHT22;11936;50.820;4.336;2023-06-14T03:57:30;22.50;63.50
23520;DHT22;11936;50.820;4.336;2023-06-14T03:59:56;22.50;63.40
23520;DHT22;11936;50.820;4.336;2023-06-14T04:02:21;22.50;63.30
23520;DHT22;11936;50.820;4.336;2023-06-14T04:04:48;22.60;63.30
23520;DHT22;11936;50.820;4.336;2023-06-14T04:07:14;22.70;63.10
23520;DHT22;11936;50.820;4.336;2023-06-14T04:09:41;22.60;62.80
23520;DHT22;11936;50.820;4.336;2023-06-14T04:12:07;22.50;63.30
23520;DHT22;11936;50.820;4.336;2023-06-14T04:14:34;22.40;63.60
23520;DHT22;11936;50.820;4.336;2023-06-14T04:17:00;22.30;64.00
23520;DHT22;11936;50.820;4.336;2023-06-14T04:19:26;22.20;64.10
23520;DHT22;11936;50.820;4.336;2023-06-14T04:21:52;22.10;64.30
23520;DHT22;11936;50.820;4.336;2023-06-14T04:24:18;22.20;64.10
23520;DHT22;11936;50.820;4.336;2023-06-14T04:26:44;22.20;64.20
23520;DHT22;11936;50.820;4.336;2023-06-14T04:29:11;22.20;64.40
23520;DHT22;11936;50.820;4.336;2023-06-14T04:31:41;22.20;64.40
23520;DHT22;11936;50.820;4.336;2023-06-14T04:34:07;22.30;64.50
23520;DHT22;11936;50.820;4.336;2023-06-14T04:36:33;22.20;64.40
23520;DHT22;11936;50.820;4.336;2023-06-14T04:39:01;22.20;64.40
23520;DHT22;11936;50.820;4.336;2023-06-14T04:41:29;22.20;64.40
23520;DHT22;11936;50.820;4.336;2023-06-14T04:44:00;22.10;64.50
23520;DHT22;11936;50.820;4.336;2023-06-14T04:46:30;22.20;64.70
23520;DHT22;11936;50.820;4.336;2023-06-14T04:48:57;22.10;64.80
23520;DHT22;11936;50.820;4.336;2023-06-14T04:51:23;22.10;64.00
23520;DHT22;11936;50.820;4.336;2023-06-14T04:53:58;22.00;64.90
23520;DHT22;11936;50.820;4.336;2023-06-14T04:56:24;22.10;65.10
23520;DHT22;11936;50.820;4.336;2023-06-14T04:58:51;22.00;65.30
23520;DHT22;11936;50.820;4.336;2023-06-14T05:01:18;22.10;65.30
23520;DHT22;11936;50.820;4.336;2023-06-14T05:03:44;22.10;64.90
23520;DHT22;11936;50.820;4.336;2023-06-14T05:06:14;22.00;65.00
23520;DHT22;11936;50.820;4.336;2023-06-14T05:08:40;22.10;64.90
23520;DHT22;11936;50.820;4.336;2023-06-14T05:11:05;22.00;64.80
23520;DHT22;11936;50.820;4.336;2023-06-14T05:13:31;21.90;65.10
23520;DHT22;11936;50.820;4.336;2023-06-14T05:15:58;22.00;65.00
23520;DHT22;11936;50.820;4.336;2023-06-14T05:18:24;22.00;65.20
23520;DHT22;11936;50.820;4.336;2023-06-14T05:20:50;22.00;65.20
23520;DHT22;11936;50.820;4.336;2023-06-14T05:23:16;22.10;65.20
23520;DHT22;11936;50.820;4.336;2023-06-14T05:25:45;22.20;64.60
23520;DHT22;11936;50.820;4.336;2023-06-14T05:28:11;22.20;64.60
23520;DHT22;11936;50.820;4.336;2023-06-14T05:30:40;22.40;64.60
23520;DHT22;11936;50.820;4.336;2023-06-14T05:33:06;22.40;64.90
23520;DHT22;11936;50.820;4.336;2023-06-14T05:35:31;22.40;64.40
23520;DHT22;11936;50.820;4.336;2023-06-14T05:37:57;22.40;64.10
23520;DHT22;11936;50.820;4.336;2023-06-14T05:40:23;22.40;64.60
23520;DHT22;11936;50.820;4.336;2023-06-14T05:42:48;22.50;64.70
23520;DHT22;11936;50.820;4.336;2023-06-14T05:45:14;22.40;64.50
23520;DHT22;11936;50.820;4.336;2023-06-14T05:47:41;22.40;64.30
23520;DHT22;11936;50.820;4.336;2023-06-14T05:50:07;22.30;64.10
23520;DHT22;11936;50.820;4.336;2023-06-14T05:52:34;22.20;64.90
23520;DHT22;11936;50.820;4.336;2023-06-14T05:55:00;22.30;65.10
23520;DHT22;11936;50.820;4.336;2023-06-14T05:57:26;22.50;65.30
23520;DHT22;11936;50.820;4.336;2023-06-14T05:59:51;22.60;65.20
23520;DHT22;11936;50.820;4.336;2023-06-14T06:02:17;22.70;64.80
23520;DHT22;11936;50.820;4.336;2023-06-14T06:04:43;22.70;64.60
23520;DHT22;11936;50.820;4.336;2023-06-14T06:07:08;22.70;64.80
23520;DHT22;11936;50.820;4.336;2023-06-14T06:09:34;22.70;65.30
23520;DHT22;11936;50.820;4.336;2023-06-14T06:11:59;22.70;65.00
23520;DHT22;11936;50.820;4.336;2023-06-14T06:14:25;22.70;64.80
23520;DHT22;11936;50.820;4.336;2023-06-14T06:16:51;22.70;64.90
23520;DHT22;11936;50.820;4.336;2023-06-14T06:19:18;22.80;65.60
23520;DHT22;11936;50.820;4.336;2023-06-14T06:21:44;22.80;65.30
23520;DHT22;11936;50.820;4.336;2023-06-14T06:24:09;22.90;64.90
23520;DHT22;11936;50.820;4.336;2023-06-14T06:26:35;22.90;64.30
23520;DHT22;11936;50.820;4.336;2023-06-14T06:29:01;22.90;64.00
23520;DHT22;11936;50.820;4.336;2023-06-14T06:31:26;23.00;64.50
23520;DHT22;11936;50.820;4.336;2023-06-14T06:33:53;23.00;64.40
23520;DHT22;11936;50.820;4.336;2023-06-14T06:36:19;23.10;64.40
23520;DHT22;11936;50.820;4.336;2023-06-14T06:38:47;23.10;64.40
23520;DHT22;11936;50.820;4.336;2023-06-14T06:41:12;23.20;64.00
23520;DHT22;11936;50.820;4.336;2023-06-14T06:43:38;23.30;63.80
23520;DHT22;11936;50.820;4.336;2023-06-14T06:46:03;23.30;63.80
23520;DHT22;11936;50.820;4.336;2023-06-14T06:48:29;23.30;63.90
23520;DHT22;11936;50.820;4.336;2023-06-14T06:50:55;23.20;63.80
23520;DHT22;11936;50.820;4.336;2023-06-14T06:53:20;23.30;64.80
23520;DHT22;11936;50.820;4.336;2023-06-14T06:55:46;23.40;65.40
23520;DHT22;11936;50.820;4.336;2023-06-14T06:58:12;23.50;65.50
23520;DHT22;11936;50.820;4.336;2023-06-14T07:00:38;23.40;64.20
23520;DHT22;11936;50.820;4.336;2023-06-14T07:03:03;23.50;64.60
23520;DHT22;11936;50.820;4.336;2023-06-14T07:05:29;23.60;64.90
23520;DHT22;11936;50.820;4.336;2023-06-14T07:07:55;23.60;64.10
23520;DHT22;11936;50.820;4.336;2023-06-14T07:10:21;23.60;63.10
23520;DHT22;11936;50.820;4.336;2023-06-14T07:12:46;23.60;63.90
23520;DHT22;11936;50.820;4.336;2023-06-14T07:15:12;23.80;63.60
23520;DHT22;11936;50.820;4.336;2023-06-14T07:17:38;23.90;62.90
23520;DHT22;11936;50.820;4.336;2023-06-14T07:20:04;23.80;63.20
23520;DHT22;11936;50.820;4.336;2023-06-14T07:22:41;23.80;62.20
23520;DHT22;11936;50.820;4.336;2023-06-14T07:25:11;23.70;62.40
23520;DHT22;11936;50.820;4.336;2023-06-14T07:27:41;23.70;61.90
23520;DHT22;11936;50.820;4.336;2023-06-14T07:30:08;23.90;62.20
23520;DHT22;11936;50.820;4.336;2023-06-14T07:32:34;23.90;61.60
23520;DHT22;11936;50.820;4.336;2023-06-14T07:34:59;24.00;61.90
23520;DHT22;11936;50.820;4.336;2023-06-14T07:37:25;24.00;61.00
23520;DHT22;11936;50.820;4.336;2023-06-14T07:39:51;24.10;61.50
23520;DHT22;11936;50.820;4.336;2023-06-14T07:42:16;24.00;61.10
23520;DHT22;11936;50.820;4.336;2023-06-14T07:44:42;24.00;61.70
23520;DHT22;11936;50.820;4.336;2023-06-14T07:47:07;24.20;61.90
23520;DHT22;11936;50.820;4.336;2023-06-14T07:49:33;24.20;61.80
23520;DHT22;11936;50.820;4.336;2023-06-14T07:51:58;24.20;62.10
23520;DHT22;11936;50.820;4.336;2023-06-14T07:54:24;24.50;62.20
23520;DHT22;11936;50.820;4.336;2023-06-14T07:56:52;24.40;61.70
23520;DHT22;11936;50.820;4.336;2023-06-14T07:59:17;24.50;61.10
23520;DHT22;11936;50.820;4.336;2023-06-14T08:01:43;24.50;61.50
23520;DHT22;11936;50.820;4.336;2023-06-14T08:04:13;24.70;61.50
23520;DHT22;11936;50.820;4.336;2023-06-14T08:06:38;24.80;61.10
23520;DHT22;11936;50.820;4.336;2023-06-14T08:09:04;24.80;61.10
23520;DHT22;11936;50.820;4.336;2023-06-14T08:11:31;24.90;60.60
23520;DHT22;11936;50.820;4.336;2023-06-14T08:13:56;24.80;61.70
23520;DHT22;11936;50.820;4.336;2023-06-14T08:16:22;24.80;60.20
23520;DHT22;11936;50.820;4.336;2023-06-14T08:18:48;24.70;59.50
23520;DHT22;11936;50.820;4.336;2023-06-14T08:21:14;24.70;60.70
23520;DHT22;11936;50.820;4.336;2023-06-14T08:23:40;24.70;60.00
23520;DHT22;11936;50.820;4.336;2023-06-14T08:26:08;24.90;59.80
23520;DHT22;11936;50.820;4.336;2023-06-14T08:28:34;24.90;59.50
23520;DHT22;11936;50.820;4.336;2023-06-14T08:30:59;25.30;59.80
23520;DHT22;11936;50.820;4.336;2023-06-14T08:33:25;25.20;58.70
23520;DHT22;11936;50.820;4.336;2023-06-14T08:35:51;25.30;59.10
23520;DHT22;11936;50.820;4.336;2023-06-14T08:38:16;25.20;59.50
23520;DHT22;11936;50.820;4.336;2023-06-14T08:40:42;25.10;60.60
23520;DHT22;11936;50.820;4.336;2023-06-14T08:43:08;25.20;60.80
23520;DHT22;11936;50.820;4.336;2023-06-14T08:45:34;25.40;60.10
23520;DHT22;11936;50.820;4.336;2023-06-14T08:47:59;25.40;59.40
23520;DHT22;11936;50.820;4.336;2023-06-14T08:50:26;25.40;59.50
23520;DHT22;11936;50.820;4.336;2023-06-14T08:52:58;25.40;59.30
23520;DHT22;11936;50.820;4.336;2023-06-14T08:55:28;25.30;58.00
23520;DHT22;11936;50.820;4.336;2023-06-14T08:57:56;25.40;57.70
23520;DHT22;11936;50.820;4.336;2023-06-14T09:00:27;25.20;58.60
23520;DHT22;11936;50.820;4.336;2023-06-14T09:02:54;25.30;58.50
23520;DHT22;11936;50.820;4.336;2023-06-14T09:05:27;25.30;59.20
23520;DHT22;11936;50.820;4.336;2023-06-14T09:07:53;25.30;59.40
23520;DHT22;11936;50.820;4.336;2023-06-14T09:10:22;25.50;60.00
23520;DHT22;11936;50.820;4.336;2023-06-14T09:12:48;25.40;59.00
23520;DHT22;11936;50.820;4.336;2023-06-14T09:15:14;25.40;59.70
23520;DHT22;11936;50.820;4.336;2023-06-14T09:17:40;25.40;60.10
23520;DHT22;11936;50.820;4.336;2023-06-14T09:20:07;25.40;59.60
23520;DHT22;11936;50.820;4.336;2023-06-14T09:22:37;25.50;60.10
23520;DHT22;11936;50.820;4.336;2023-06-14T09:25:03;25.50;59.50
23520;DHT22;11936;50.820;4.336;2023-06-14T09:27:30;25.50;60.20
23520;DHT22;11936;50.820;4.336;2023-06-14T09:29:56;25.60;61.10
23520;DHT22;11936;50.820;4.336;2023-06-14T09:32:22;25.50;61.90
23520;DHT22;11936;50.820;4.336;2023-06-14T09:34:48;25.40;62.00
23520;DHT22;11936;50.820;4.336;2023-06-14T09:37:28;25.40;62.40
23520;DHT22;11936;50.820;4.336;2023-06-14T09:39:55;25.50;62.70
23520;DHT22;11936;50.820;4.336;2023-06-14T09:42:20;25.60;61.70
23520;DHT22;11936;50.820;4.336;2023-06-14T09:44:49;25.60;59.80
23520;DHT22;11936;50.820;4.336;2023-06-14T09:47:16;25.60;59.90
23520;DHT22;11936;50.820;4.336;2023-06-14T09:49:42;25.70;60.90
23520;DHT22;11936;50.820;4.336;2023-06-14T09:52:17;25.70;60.10
23520;DHT22;11936;50.820;4.336;2023-06-14T09:54:44;25.60;60.20
23520;DHT22;11936;50.820;4.336;2023-06-14T09:57:15;25.60;60.40
23520;DHT22;11936;50.820;4.336;2023-06-14T09:59:43;25.50;59.20
23520;DHT22;11936;50.820;4.336;2023-06-14T10:02:14;25.50;59.90
23520;DHT22;11936;50.820;4.336;2023-06-14T10:04:46;25.60;60.10
23520;DHT22;11936;50.820;4.336;2023-06-14T10:07:19;25.60;59.90
23520;DHT22;11936;50.820;4.336;2023-06-14T10:09:46;25.70;60.90
23520;DHT22;11936;50.820;4.336;2023-06-14T10:12:16;25.70;60.10
23520;DHT22;11936;50.820;4.336;2023-06-14T10:14:49;25.80;59.00
23520;DHT22;11936;50.820;4.336;2023-06-14T10:23:10;25.90;57.10
23520;DHT22;11936;50.820;4.336;2023-06-14T10:25:39;25.90;56.90
23520;DHT22;11936;50.820;4.336;2023-06-14T10:28:16;25.80;57.10
23520;DHT22;11936;50.820;4.336;2023-06-14T10:31:07;25.80;57.10
23520;DHT22;11936;50.820;4.336;2023-06-14T10:33:33;25.90;57.60
23520;DHT22;11936;50.820;4.336;2023-06-14T10:36:25;25.90;56.00
23520;DHT22;11936;50.820;4.336;2023-06-14T10:39:16;26.00;56.40
23520;DHT22;11936;50.820;4.336;2023-06-14T10:41:51;26.00;57.20
23520;DHT22;11936;50.820;4.336;2023-06-14T10:46:49;26.20;58.00
23520;DHT22;11936;50.820;4.336;2023-06-14T10:49:18;26.20;57.60
23520;DHT22;11936;50.820;4.336;2023-06-14T10:51:49;26.10;57.10
23520;DHT22;11936;50.820;4.336;2023-06-14T10:54:16;26.20;58.20
23520;DHT22;11936;50.820;4.336;2023-06-14T10:56:46;26.20;58.50
23520;DHT22;11936;50.820;4.336;2023-06-14T10:59:12;26.30;56.80
23520;DHT22;11936;50.820;4.336;2023-06-14T11:04:13;26.40;56.90
23520;DHT22;11936;50.820;4.336;2023-06-14T11:06:47;26.50;56.70
23520;DHT22;11936;50.820;4.336;2023-06-14T11:11:48;26.40;55.50
23520;DHT22;11936;50.820;4.336;2023-06-14T11:14:14;26.40;55.80
23520;DHT22;11936;50.820;4.336;2023-06-14T11:16:40;26.40;55.70
23520;DHT22;11936;50.820;4.336;2023-06-14T11:19:05;26.30;56.00
23520;DHT22;11936;50.820;4.336;2023-06-14T11:21:34;26.40;56.10
23520;DHT22;11936;50.820;4.336;2023-06-14T11:24:10;26.30;55.60
23520;DHT22;11936;50.820;4.336;2023-06-14T11:26:37;26.20;55.80
23520;DHT22;11936;50.820;4.336;2023-06-14T11:29:03;26.20;55.60
23520;DHT22;11936;50.820;4.336;2023-06-14T11:31:29;26.30;55.60
23520;DHT22;11936;50.820;4.336;2023-06-14T11:33:59;26.30;55.60
23520;DHT22;11936;50.820;4.336;2023-06-14T11:36:29;26.40;55.80
23520;DHT22;11936;50.820;4.336;2023-06-14T11:39:04;26.50;55.50
23520;DHT22;11936;50.820;4.336;2023-06-14T11:41:40;26.50;55.30
23520;DHT22;11936;50.820;4.336;2023-06-14T11:44:06;26.40;55.30
23520;DHT22;11936;50.820;4.336;2023-06-14T11:46:32;26.40;55.90
23520;DHT22;11936;50.820;4.336;2023-06-14T11:48:58;26.50;55.40
23520;DHT22;11936;50.820;4.336;2023-06-14T11:51:24;26.70;56.10
23520;DHT22;11936;50.820;4.336;2023-06-14T11:53:50;26.80;55.90
23520;DHT22;11936;50.820;4.336;2023-06-14T11:56:16;26.80;54.70
23520;DHT22;11936;50.820;4.336;2023-06-14T11:58:43;26.70;54.80
23520;DHT22;11936;50.820;4.336;2023-06-14T12:01:09;26.80;54.70
23520;DHT22;11936;50.820;4.336;2023-06-14T12:03:34;26.80;55.50
23520;DHT22;11936;50.820;4.336;2023-06-14T12:06:08;26.80;56.00
23520;DHT22;11936;50.820;4.336;2023-06-14T12:08:37;26.80;55.00
23520;DHT22;11936;50.820;4.336;2023-06-14T12:11:15;26.90;55.40
23520;DHT22;11936;50.820;4.336;2023-06-14T12:13:42;26.90;54.70
23520;DHT22;11936;50.820;4.336;2023-06-14T12:16:09;27.00;54.50
23520;DHT22;11936;50.820;4.336;2023-06-14T12:18:36;27.10;54.70
23520;DHT22;11936;50.820;4.336;2023-06-14T12:21:06;27.10;55.10
23520;DHT22;11936;50.820;4.336;2023-06-14T12:23:41;27.00;54.30
23520;DHT22;11936;50.820;4.336;2023-06-14T12:26:07;27.00;54.60
23520;DHT22;11936;50.820;4.336;2023-06-14T12:28:33;27.00;55.20
23520;DHT22;11936;50.820;4.336;2023-06-14T12:30:58;27.10;54.50
23520;DHT22;11936;50.820;4.336;2023-06-14T12:33:24;27.10;54.50
23520;DHT22;11936;50.820;4.336;2023-06-14T12:35:51;27.00;54.40
23520;DHT22;11936;50.820;4.336;2023-06-14T12:38:16;27.10;54.40
23520;DHT22;11936;50.820;4.336;2023-06-14T12:40:42;27.10;52.90
23520;DHT22;11936;50.820;4.336;2023-06-14T12:43:08;27.10;52.50
23520;DHT22;11936;50.820;4.336;2023-06-14T12:45:33;27.10;52.50
23520;DHT22;11936;50.820;4.336;2023-06-14T12:47:59;27.00;52.10
23520;DHT22;11936;50.820;4.336;2023-06-14T12:50:25;27.20;52.30
23520;DHT22;11936;50.820;4.336;2023-06-14T12:52:50;27.20;53.30
23520;DHT22;11936;50.820;4.336;2023-06-14T12:55:19;27.20;53.60
23520;DHT22;11936;50.820;4.336;2023-06-14T12:57:47;27.10;52.60
23520;DHT22;11936;50.820;4.336;2023-06-14T13:00:15;27.30;52.70
23520;DHT22;11936;50.820;4.336;2023-06-14T13:02:41;27.30;52.50
23520;DHT22;11936;50.820;4.336;2023-06-14T13:05:12;27.40;51.90
23520;DHT22;11936;50.820;4.336;2023-06-14T13:07:37;27.40;52.70
23520;DHT22;11936;50.820;4.336;2023-06-14T13:10:03;27.40;52.20
23520;DHT22;11936;50.820;4.336;2023-06-14T13:12:29;27.40;51.50
23520;DHT22;11936;50.820;4.336;2023-06-14T13:14:54;27.40;52.80
23520;DHT22;11936;50.820;4.336;2023-06-14T13:17:20;27.40;52.50
23520;DHT22;11936;50.820;4.336;2023-06-14T13:19:45;27.40;52.70
23520;DHT22;11936;50.820;4.336;2023-06-14T13:22:11;27.50;53.70
23520;DHT22;11936;50.820;4.336;2023-06-14T13:24:37;27.60;53.30
23520;DHT22;11936;50.820;4.336;2023-06-14T13:27:02;27.70;52.80
23520;DHT22;11936;50.820;4.336;2023-06-14T13:29:28;27.80;53.20
23520;DHT22;11936;50.820;4.336;2023-06-14T13:31:56;27.90;53.00
23520;DHT22;11936;50.820;4.336;2023-06-14T13:34:22;27.90;52.20
23520;DHT22;11936;50.820;4.336;2023-06-14T13:36:49;27.80;51.60
23520;DHT22;11936;50.820;4.336;2023-06-14T13:39:14;27.80;52.40
23520;DHT22;11936;50.820;4.336;2023-06-14T13:41:40;27.80;51.80
23520;DHT22;11936;50.820;4.336;2023-06-14T13:44:06;27.80;51.70
23520;DHT22;11936;50.820;4.336;2023-06-14T13:46:34;27.80;52.50
23520;DHT22;11936;50.820;4.336;2023-06-14T13:49:00;27.80;51.80
23520;DHT22;11936;50.820;4.336;2023-06-14T13:51:26;27.80;51.90
23520;DHT22;11936;50.820;4.336;2023-06-14T13:53:53;27.80;51.50
23520;DHT22;11936;50.820;4.336;2023-06-14T13:56:18;27.80;51.50
23520;DHT22;11936;50.820;4.336;2023-06-14T13:58:44;27.80;52.20
23520;DHT22;11936;50.820;4.336;2023-06-14T14:01:10;27.90;50.50
23520;DHT22;11936;50.820;4.336;2023-06-14T14:03:37;28.00;51.30
23520;DHT22;11936;50.820;4.336;2023-06-14T14:06:03;28.10;50.80
23520;DHT22;11936;50.820;4.336;2023-06-14T14:08:29;28.10;50.00
23520;DHT22;11936;50.820;4.336;2023-06-14T14:10:55;28.20;50.50
23520;DHT22;11936;50.820;4.336;2023-06-14T14:13:22;28.30;49.70
23520;DHT22;11936;50.820;4.336;2023-06-14T14:15:47;28.40;48.80
23520;DHT22;11936;50.820;4.336;2023-06-14T14:18:14;28.60;49.70
23520;DHT22;11936;50.820;4.336;2023-06-14T14:20:40;28.50;48.00
23520;DHT22;11936;50.820;4.336;2023-06-14T14:23:06;28.50;49.10
23520;DHT22;11936;50.820;4.336;2023-06-14T14:25:31;28.30;49.30
23520;DHT22;11936;50.820;4.336;2023-06-14T14:27:57;28.30;51.00
23520;DHT22;11936;50.820;4.336;2023-06-14T14:30:23;28.30;49.40
23520;DHT22;11936;50.820;4.336;2023-06-14T14:32:49;28.40;49.60
23520;DHT22;11936;50.820;4.336;2023-06-14T14:35:16;28.40;49.50
23520;DHT22;11936;50.820;4.336;2023-06-14T14:37:43;28.50;49.80
23520;DHT22;11936;50.820;4.336;2023-06-14T14:40:08;28.70;50.20
23520;DHT22;11936;50.820;4.336;2023-06-14T14:42:35;28.90;48.90
23520;DHT22;11936;50.820;4.336;2023-06-14T14:45:01;28.70;48.40
23520;DHT22;11936;50.820;4.336;2023-06-14T14:47:27;28.70;48.40
23520;DHT22;11936;50.820;4.336;2023-06-14T14:49:52;28.60;48.00
23520;DHT22;11936;50.820;4.336;2023-06-14T14:52:18;28.60;48.60
23520;DHT22;11936;50.820;4.336;2023-06-14T14:54:43;28.80;49.00
23520;DHT22;11936;50.820;4.336;2023-06-14T14:57:09;28.80;48.00
23520;DHT22;11936;50.820;4.336;2023-06-14T14:59:36;28.80;48.60
23520;DHT22;11936;50.820;4.336;2023-06-14T15:02:01;28.80;48.30
23520;DHT22;11936;50.820;4.336;2023-06-14T15:04:27;28.70;48.10
23520;DHT22;11936;50.820;4.336;2023-06-14T15:06:52;28.80;48.10
23520;DHT22;11936;50.820;4.336;2023-06-14T15:09:18;28.90;47.70
23520;DHT22;11936;50.820;4.336;2023-06-14T15:11:44;28.90;47.60
23520;DHT22;11936;50.820;4.336;2023-06-14T15:14:10;28.90;48.10
23520;DHT22;11936;50.820;4.336;2023-06-14T15:16:35;28.90;47.50
23520;DHT22;11936;50.820;4.336;2023-06-14T15:19:01;29.10;47.00
23520;DHT22;11936;50.820;4.336;2023-06-14T15:21:27;29.10;46.60
23520;DHT22;11936;50.820;4.336;2023-06-14T15:23:52;29.10;46.90
23520;DHT22;11936;50.820;4.336;2023-06-14T15:26:19;29.20;48.00
23520;DHT22;11936;50.820;4.336;2023-06-14T15:28:45;29.30;47.50
23520;DHT22;11936;50.820;4.336;2023-06-14T15:31:10;29.50;47.80
23520;DHT22;11936;50.820;4.336;2023-06-14T15:33:36;29.40;47.10
23520;DHT22;11936;50.820;4.336;2023-06-14T15:36:02;29.50;47.10
23520;DHT22;11936;50.820;4.336;2023-06-14T15:38:28;29.50;47.40
23520;DHT22;11936;50.820;4.336;2023-06-14T15:40:53;29.50;47.80
23520;DHT22;11936;50.820;4.336;2023-06-14T15:43:20;29.60;47.80
23520;DHT22;11936;50.820;4.336;2023-06-14T15:45:45;29.80;47.80